createdAt,value
2022-12-08T00:00:01.896Z,100953.13
2022-12-08T00:02:30.314Z,100906.41
2022-12-08T00:05:21.938Z,100928.50
2022-12-08T00:08:29.071Z,100938.94
2022-12-08T00:10:57.832Z,100904.09
2022-12-08T00:13:25.826Z,100930.41
2022-12-08T00:15:52.667Z,100937.78
2022-12-08T00:18:21.836Z,100931.59
2022-12-08T00:20:59.328Z,100935.66
2022-12-08T00:23:29.524Z,100932.47
2022-12-08T00:25:57.343Z,100925.28
2022-12-08T00:28:24.265Z,100919.28
2022-12-08T00:30:58.418Z,100931.22
2022-12-08T00:33:25.274Z,100913.81
2022-12-08T00:35:51.955Z,100924.31
2022-12-08T00:38:21.408Z,100912.47
2022-12-08T00:40:48.508Z,100912.22
2022-12-08T00:43:17.731Z,100913.81
2022-12-08T00:45:44.596Z,100922.00
2022-12-08T00:48:13.727Z,100831.97
2022-12-08T00:50:40.643Z,100920.88
2022-12-08T00:53:09.737Z,100909.72
2022-12-08T00:55:36.656Z,100925.00
2022-12-08T00:58:03.832Z,100834.28
2022-12-08T01:00:32.378Z,100922.84
2022-12-08T01:02:59.642Z,100923.88
2022-12-08T01:05:29.995Z,100923.00
2022-12-08T01:08:07.460Z,100918.03
2022-12-08T01:10:38.740Z,100919.47
2022-12-08T01:13:05.642Z,100925.13
2022-12-08T01:15:48.489Z,100924.19
2022-12-08T01:18:19.346Z,100922.69
2022-12-08T01:20:56.170Z,100938.06
2022-12-08T01:23:23.638Z,100946.19
2022-12-08T01:26:08.471Z,100952.22
2022-12-08T01:28:38.853Z,100934.16
2022-12-08T01:31:19.798Z,100907.97
2022-12-08T01:33:48.917Z,100884.34
2022-12-08T01:36:31.222Z,100926.94
2022-12-08T01:39:08.525Z,100873.09
2022-12-08T01:41:45.377Z,100915.75
2022-12-08T01:44:12.752Z,100751.56
2022-12-08T01:46:44.059Z,100947.75
2022-12-08T01:49:21.663Z,100959.34
2022-12-08T01:52:13.463Z,100953.13
2022-12-08T01:54:48.686Z,100947.81
2022-12-08T02:01:36.616Z,100931.56
2022-12-08T02:07:45.020Z,100901.66
2022-12-08T02:10:16.819Z,100914.00
2022-12-08T02:12:43.855Z,100915.19
2022-12-08T02:15:11.129Z,100931.56
2022-12-08T02:17:40.893Z,100834.31
2022-12-08T02:20:53.820Z,100911.09
2022-12-08T02:23:35.053Z,100925.44
2022-12-08T02:26:04.761Z,100902.50
2022-12-08T02:28:51.380Z,100902.56
2022-12-08T02:31:57.110Z,100914.97
2022-12-08T02:34:36.232Z,100886.44
2022-12-08T02:37:12.035Z,100907.56
2022-12-08T02:39:59.984Z,100882.94
2022-12-08T02:42:36.400Z,100886.38
2022-12-08T02:45:14.802Z,100906.47
2022-12-08T02:47:42.325Z,100875.31
2022-12-08T02:50:12.408Z,100901.81
2022-12-08T02:52:49.287Z,100896.66
2022-12-08T02:55:44.828Z,100842.09
2022-12-08T02:58:31.694Z,100899.97
2022-12-08T03:01:29.405Z,100905.91
2022-12-08T03:04:08.711Z,100890.28
2022-12-08T03:07:05.332Z,100896.66
2022-12-08T03:09:54.309Z,100897.94
2022-12-08T03:12:48.791Z,100883.25
2022-12-08T03:15:18.896Z,100827.34
2022-12-08T03:17:54.925Z,100879.53
2022-12-08T03:20:27.194Z,100849.59
2022-12-08T03:22:58.586Z,100844.63
2022-12-08T03:25:39.474Z,100850.25
2022-12-08T03:28:06.567Z,100785.19
2022-12-08T03:30:38.837Z,100794.25
2022-12-08T03:33:30.563Z,100845.72
2022-12-08T03:35:59.872Z,100835.66
2022-12-08T03:38:26.761Z,100829.28
2022-12-08T03:41:12.233Z,100819.16
2022-12-08T03:43:39.043Z,100840.50
2022-12-08T03:46:06.148Z,100829.88
2022-12-08T03:48:32.979Z,100821.84
2022-12-08T03:50:59.631Z,100806.06
2022-12-08T03:53:26.703Z,100828.97
2022-12-08T03:55:59.227Z,100794.22
2022-12-08T03:58:25.976Z,100825.38
2022-12-08T04:00:52.808Z,100840.56
2022-12-08T04:03:22.608Z,100822.94
2022-12-08T04:05:49.416Z,100824.97
2022-12-08T04:08:19.342Z,100834.06
2022-12-08T04:10:47.526Z,100787.84
2022-12-08T04:13:20.736Z,100834.91
2022-12-08T04:15:48.674Z,100801.09
2022-12-08T04:18:17.379Z,100803.66
2022-12-08T04:20:45.124Z,100831.44
2022-12-08T04:23:15.876Z,100836.72
2022-12-08T04:25:45.496Z,100830.38
2022-12-08T04:28:13.173Z,100816.91
2022-12-08T04:30:41.886Z,100811.78
2022-12-08T04:33:08.579Z,100825.09
2022-12-08T04:35:35.371Z,100822.97
2022-12-08T04:38:07.882Z,100824.56
2022-12-08T04:40:34.615Z,100815.03
2022-12-08T04:43:01.371Z,100816.75
2022-12-08T04:45:28.317Z,100755.66
2022-12-08T04:48:07.771Z,100817.63
2022-12-08T04:50:34.863Z,100823.41
2022-12-08T04:53:04.319Z,100801.53
2022-12-08T04:55:31.569Z,100808.47
2022-12-08T04:57:58.324Z,100798.34
2022-12-08T05:00:31.121Z,100810.22
2022-12-08T05:03:02.955Z,100819.25
2022-12-08T05:05:32.443Z,100803.34
2022-12-08T05:07:59.292Z,100817.13
2022-12-08T05:10:27.375Z,100789.22
2022-12-08T05:12:54.204Z,100826.28
2022-12-08T05:15:21.009Z,100795.84
2022-12-08T05:17:47.802Z,100827.38
2022-12-08T05:20:14.693Z,100825.06
2022-12-08T05:22:41.478Z,100818.72
2022-12-08T05:25:08.393Z,100823.09
2022-12-08T05:27:35.774Z,100811.41
2022-12-08T05:30:02.974Z,100804.09
2022-12-08T05:32:32.600Z,100807.25
2022-12-08T05:34:59.512Z,100809.47
2022-12-08T05:37:26.291Z,100812.63
2022-12-08T05:39:53.693Z,100816.53
2022-12-08T05:42:24.617Z,100807.03
2022-12-08T05:44:51.824Z,100818.88
2022-12-08T05:47:18.658Z,100819.94
2022-12-08T05:52:12.062Z,100613.75
2022-12-08T05:54:41.960Z,100791.44
2022-12-08T05:57:08.945Z,100785.03
2022-12-08T05:59:35.655Z,100787.97
2022-12-08T06:02:02.587Z,100792.00
2022-12-08T06:04:29.397Z,100773.78
2022-12-08T06:06:58.186Z,100797.44
2022-12-08T06:09:25.308Z,100788.84
2022-12-08T06:11:58.109Z,100789.69
2022-12-08T06:14:27.719Z,100812.09
2022-12-08T06:16:54.524Z,100806.38
2022-12-08T06:19:21.356Z,100790.78
2022-12-08T06:21:47.985Z,100817.16
2022-12-08T06:24:14.877Z,100802.03
2022-12-08T06:26:41.880Z,100779.28
2022-12-08T06:29:08.724Z,100806.63
2022-12-08T06:31:35.817Z,100777.19
2022-12-08T06:34:02.721Z,100801.72
2022-12-08T06:36:30.436Z,100828.38
2022-12-08T06:38:57.987Z,100795.22
2022-12-08T06:41:25.976Z,100834.16
2022-12-08T06:43:58.403Z,100799.91
2022-12-08T06:46:25.421Z,100828.50
2022-12-08T06:48:52.251Z,100839.75
2022-12-08T06:51:20.937Z,100789.44
2022-12-08T06:53:54.483Z,100853.44
2022-12-08T06:56:24.023Z,100841.53
2022-12-08T06:58:52.977Z,100845.56
2022-12-08T07:01:20.114Z,100828.91
2022-12-08T07:03:48.269Z,100817.69
2022-12-08T07:06:20.710Z,100824.84
2022-12-08T07:08:47.545Z,100812.34
2022-12-08T07:11:19.767Z,100796.53
2022-12-08T07:13:48.612Z,100759.31
2022-12-08T07:16:18.702Z,100826.03
2022-12-08T07:18:45.576Z,100834.44
2022-12-08T07:21:15.036Z,100826.00
2022-12-08T07:23:42.402Z,100834.75
2022-12-08T07:26:12.416Z,100807.34
2022-12-08T07:28:40.978Z,100839.34
2022-12-08T07:31:19.656Z,100756.94
2022-12-08T07:33:46.910Z,100798.84
2022-12-08T07:36:13.984Z,100846.03
2022-12-08T07:38:40.719Z,100830.78
2022-12-08T07:41:12.523Z,100842.00
2022-12-08T07:43:42.946Z,100847.34
2022-12-08T07:46:16.530Z,100560.81
2022-12-08T07:48:43.784Z,100664.75
2022-12-08T07:51:13.959Z,100837.53
2022-12-08T07:53:43.430Z,100811.50
2022-12-08T07:56:13.653Z,100819.25
2022-12-08T07:58:42.224Z,100782.97
2022-12-08T08:01:20.282Z,100752.56
2022-12-08T08:03:47.229Z,100834.84
2022-12-08T08:06:13.872Z,100781.88
2022-12-08T08:08:40.672Z,100849.25
2022-12-08T08:11:15.768Z,100847.81
2022-12-08T08:13:49.852Z,100822.78
2022-12-08T08:16:16.879Z,100805.56
2022-12-08T08:18:43.866Z,100824.59
2022-12-08T08:21:43.749Z,100833.97
2022-12-08T08:24:00.887Z,100795.06
2022-12-08T08:26:27.686Z,100745.91
2022-12-08T08:28:58.216Z,100822.59
2022-12-08T08:31:27.271Z,100785.88
2022-12-08T08:33:56.421Z,100838.09
2022-12-08T08:36:23.313Z,100841.25
2022-12-08T08:38:50.105Z,100843.81
2022-12-08T08:41:16.839Z,100830.06
2022-12-08T08:43:44.147Z,100838.69
2022-12-08T08:46:11.828Z,100842.50
2022-12-08T08:48:38.699Z,100835.66
2022-12-08T08:51:16.732Z,100851.84
2022-12-08T08:53:43.937Z,100857.94
2022-12-08T08:56:12.296Z,100836.63
2022-12-08T08:58:39.212Z,100851.53
2022-12-08T09:01:08.496Z,100860.69
2022-12-08T09:03:35.359Z,100861.53
2022-12-08T09:06:05.034Z,100860.03
2022-12-08T09:08:32.183Z,100838.53
2022-12-08T09:10:58.946Z,100864.41
2022-12-08T09:13:26.078Z,100867.66
2022-12-08T09:15:52.999Z,100816.16
2022-12-08T09:18:19.923Z,100850.44
2022-12-08T09:20:46.593Z,100845.25
2022-12-08T09:23:13.316Z,100876.50
2022-12-08T09:25:44.779Z,100810.03
2022-12-08T09:28:12.023Z,100877.41
2022-12-08T09:30:39.741Z,100874.28
2022-12-08T09:33:08.326Z,100835.97
2022-12-08T09:35:35.011Z,100869.31
2022-12-08T09:38:01.702Z,100854.72
2022-12-08T09:40:30.201Z,100861.00
2022-12-08T09:43:19.838Z,100878.84
2022-12-08T09:45:48.711Z,100872.22
2022-12-08T09:48:23.377Z,100847.19
2022-12-08T09:50:58.418Z,100868.59
2022-12-08T09:53:35.323Z,100690.19
2022-12-08T09:56:39.101Z,100848.44
2022-12-08T09:59:21.127Z,100828.16
2022-12-08T10:01:48.187Z,100834.47
2022-12-08T10:04:26.111Z,100792.44
2022-12-08T10:07:05.086Z,100827.22
2022-12-08T10:09:56.629Z,100830.69
2022-12-08T10:12:31.545Z,100811.72
2022-12-08T10:15:22.541Z,100790.09
2022-12-08T10:17:51.243Z,100824.91
2022-12-08T10:20:20.443Z,100743.91
2022-12-08T10:22:52.411Z,100821.53
2022-12-08T10:25:34.187Z,100707.09
2022-12-08T10:28:00.986Z,100783.50
2022-12-08T10:30:27.764Z,100814.38
2022-12-08T10:32:54.826Z,100812.06
2022-12-08T10:35:23.966Z,100759.94
2022-12-08T10:38:06.601Z,100805.38
2022-12-08T10:40:45.410Z,100813.56
2022-12-08T10:43:25.568Z,100793.31
2022-12-08T10:45:52.804Z,100810.81
2022-12-08T10:48:23.146Z,100818.44
2022-12-08T10:50:55.020Z,100747.34
2022-12-08T10:53:29.492Z,100742.69
2022-12-08T10:56:02.181Z,100806.94
2022-12-08T10:58:43.816Z,100805.72
2022-12-08T11:01:33.719Z,100796.31
2022-12-08T11:04:03.307Z,100794.16
2022-12-08T11:06:38.448Z,100791.19
2022-12-08T11:09:18.069Z,100797.94
2022-12-08T11:11:56.284Z,100795.00
2022-12-08T11:14:33.503Z,100776.91
2022-12-08T11:17:10.490Z,100794.56
2022-12-08T11:19:39.640Z,100781.69
2022-12-08T11:22:32.572Z,100794.22
2022-12-08T11:25:05.982Z,100769.47
2022-12-08T11:27:36.323Z,100782.16
2022-12-08T11:30:15.157Z,100732.97
2022-12-08T11:32:44.895Z,100769.91
2022-12-08T11:35:39.204Z,100755.13
2022-12-08T11:38:24.058Z,100754.19
2022-12-08T11:41:00.112Z,100769.88
2022-12-08T11:43:36.071Z,100765.53
2022-12-08T11:46:17.829Z,100766.59
2022-12-08T11:48:47.561Z,100758.56
2022-12-08T11:51:22.756Z,100733.25
2022-12-08T11:53:53.472Z,100758.09
2022-12-08T11:56:33.625Z,100752.66
2022-12-08T11:59:23.345Z,100742.53
2022-12-08T12:01:50.485Z,100718.47
2022-12-08T12:04:38.416Z,100745.09
2022-12-08T12:07:38.046Z,100745.81
2022-12-08T12:10:23.241Z,100716.69
2022-12-08T12:13:29.895Z,100734.63
2022-12-08T12:16:25.664Z,100731.69
2022-12-08T12:19:00.919Z,100722.63
2022-12-08T12:21:37.059Z,100670.75
2022-12-08T12:24:35.572Z,100727.06
2022-12-08T12:27:17.903Z,100656.91
2022-12-08T12:30:13.152Z,100718.41
2022-12-08T12:32:51.891Z,100710.47
2022-12-08T12:35:41.770Z,100710.25
2022-12-08T12:38:47.731Z,100669.72
2022-12-08T12:41:19.729Z,100685.22
2022-12-08T12:44:24.166Z,100709.78
2022-12-08T12:46:54.031Z,100654.91
2022-12-08T12:49:39.360Z,100707.63
2022-12-08T12:52:19.002Z,100705.44
2022-12-08T12:54:54.046Z,100685.94
2022-12-08T12:57:20.628Z,100689.81
2022-12-08T12:59:55.514Z,100684.28
2022-12-08T13:02:25.659Z,100695.41
2022-12-08T13:05:18.851Z,100663.53
2022-12-08T13:08:02.705Z,100699.59
2022-12-08T13:10:33.359Z,100682.94
2022-12-08T13:13:16.772Z,100646.94
2022-12-08T13:15:46.988Z,100697.00
2022-12-08T13:18:39.862Z,100644.88
2022-12-08T13:21:09.475Z,100632.94
2022-12-08T13:23:47.302Z,100695.09
2022-12-08T13:26:30.685Z,100654.59
2022-12-08T13:29:08.800Z,100670.69
2022-12-08T13:31:35.496Z,100706.38
2022-12-08T13:34:06.979Z,100682.34
2022-12-08T13:36:39.334Z,100694.34
2022-12-08T13:39:17.609Z,100635.22
2022-12-08T13:41:53.494Z,100672.47
2022-12-08T13:48:14.148Z,100664.66
2022-12-08T13:59:30.870Z,100644.94
2022-12-08T14:02:15.859Z,100670.94
2022-12-08T14:05:16.941Z,100670.69
2022-12-08T14:07:34.217Z,100629.22
2022-12-08T14:10:03.732Z,100665.78
2022-12-08T14:12:33.620Z,100428.56
2022-12-08T14:15:06.829Z,100595.53
2022-12-08T14:17:42.944Z,100685.97
2022-12-08T14:20:20.321Z,100605.91
2022-12-08T14:22:52.691Z,100693.44
2022-12-08T14:25:21.280Z,100676.72
2022-12-08T14:27:48.526Z,100703.78
2022-12-08T14:30:28.575Z,100701.63
2022-12-08T14:33:01.212Z,100705.47
2022-12-08T14:35:35.639Z,100709.78
2022-12-08T14:38:05.449Z,100710.75
2022-12-08T14:40:41.806Z,100704.25
2022-12-08T14:43:13.578Z,100695.00
2022-12-08T14:45:50.839Z,100692.69
2022-12-08T14:48:23.423Z,100713.97
2022-12-08T14:51:18.914Z,100714.66
2022-12-08T14:53:46.590Z,100711.09
2022-12-08T14:56:26.859Z,100711.69
2022-12-08T14:59:05.269Z,100710.00
2022-12-08T15:01:32.733Z,100700.63
2022-12-08T15:04:28.151Z,100706.28
2022-12-08T15:07:17.100Z,100704.13
2022-12-08T15:09:49.459Z,100713.22
2022-12-08T15:12:27.413Z,100641.19
2022-12-08T15:15:02.308Z,100646.09
2022-12-08T15:17:42.153Z,100719.63
2022-12-08T15:20:46.004Z,100680.88
2022-12-08T15:23:21.491Z,100695.16
2022-12-08T15:25:49.563Z,100694.94
2022-12-08T15:28:19.461Z,100702.28
2022-12-08T15:30:47.702Z,100626.75
2022-12-08T15:33:14.778Z,100682.31
2022-12-08T15:35:42.065Z,100604.50
2022-12-08T15:38:21.433Z,100702.28
2022-12-08T15:40:48.639Z,100703.03
2022-12-08T15:43:15.395Z,100709.72
2022-12-08T15:45:56.289Z,100700.72
2022-12-08T15:48:27.529Z,100688.44
2022-12-08T15:50:55.047Z,100688.59
2022-12-08T15:53:23.964Z,100628.09
2022-12-08T15:56:26.455Z,100694.81
2022-12-08T15:58:56.549Z,100691.59
2022-12-08T16:01:26.680Z,100650.44
2022-12-08T16:09:44.668Z,100703.75
2022-12-08T16:15:59.734Z,100694.13
2022-12-08T16:18:27.698Z,100689.31
2022-12-08T16:21:22.885Z,100711.69
2022-12-08T16:23:43.606Z,100724.13
2022-12-08T16:26:28.541Z,100671.53
2022-12-08T16:29:04.812Z,100689.13
2022-12-08T16:31:37.754Z,100711.94
2022-12-08T16:34:04.422Z,100701.22
2022-12-08T16:36:31.252Z,100688.38
2022-12-08T16:38:59.662Z,100688.50
2022-12-08T16:41:49.174Z,100707.97
2022-12-08T16:44:16.237Z,100701.25
2022-12-08T16:46:43.252Z,100650.88
2022-12-08T16:49:13.084Z,100689.09
2022-12-08T16:51:42.729Z,100703.63
2022-12-08T16:54:09.785Z,100701.13
2022-12-08T16:56:36.854Z,100654.94
2022-12-08T16:59:04.122Z,100655.88
2022-12-08T17:01:32.031Z,100712.66
2022-12-08T17:06:45.871Z,100702.47
2022-12-08T17:09:12.582Z,100712.28
2022-12-08T17:11:43.274Z,100716.97
2022-12-08T17:14:14.835Z,100700.66
2022-12-08T17:16:43.143Z,100716.41
2022-12-08T17:19:10.400Z,100724.47
2022-12-08T17:21:37.351Z,100722.16
2022-12-08T17:24:04.997Z,100672.47
2022-12-08T17:26:31.950Z,100676.56
2022-12-08T17:29:03.664Z,100696.44
2022-12-08T17:31:34.720Z,100703.06
2022-12-08T17:34:03.428Z,100634.00
2022-12-08T17:36:34.201Z,100708.84
2022-12-08T17:39:05.742Z,100677.75
2022-12-08T17:41:33.347Z,100661.44
2022-12-08T17:44:00.344Z,100709.00
2022-12-08T17:46:28.984Z,100694.44
2022-12-08T17:48:55.946Z,100698.91
2022-12-08T17:51:22.931Z,100707.00
2022-12-08T17:53:49.787Z,100701.97
2022-12-08T17:56:21.710Z,100692.25
2022-12-08T17:58:54.281Z,100639.41
2022-12-08T18:01:23.935Z,100709.56
2022-12-08T18:03:51.766Z,100677.53
2022-12-08T18:06:18.730Z,100695.00
2022-12-08T18:08:46.173Z,100653.97
2022-12-08T18:11:17.230Z,100618.88
2022-12-08T18:13:47.102Z,100618.00
2022-12-08T18:16:17.595Z,100680.56
2022-12-08T18:18:44.390Z,100685.22
2022-12-08T18:21:19.908Z,100696.63
2022-12-08T18:23:51.919Z,100694.72
2022-12-08T18:26:19.812Z,100696.63
2022-12-08T18:28:47.156Z,100688.13
2022-12-08T18:31:20.283Z,100674.59
2022-12-08T18:33:48.580Z,100656.31
2022-12-08T18:36:21.546Z,100699.72
2022-12-08T18:38:48.680Z,100714.44
2022-12-08T18:41:21.137Z,100707.06
2022-12-08T18:43:47.960Z,100708.31
2022-12-08T18:46:17.786Z,100670.19
2022-12-08T18:48:47.650Z,100696.31
2022-12-08T18:51:19.718Z,100718.44
2022-12-08T18:53:46.706Z,100723.09
2022-12-08T18:56:34.989Z,100697.34
2022-12-08T18:59:11.819Z,100719.09
2022-12-08T19:01:40.094Z,100710.19
2022-12-08T19:04:28.040Z,100700.28
2022-12-08T19:06:58.218Z,100718.56
2022-12-08T19:09:32.175Z,100687.44
2022-12-08T19:11:59.158Z,100719.34
2022-12-08T19:14:28.577Z,100719.16
2022-12-08T19:16:56.091Z,100710.59
2022-12-08T19:19:22.827Z,100687.56
2022-12-08T19:21:52.672Z,100705.13
2022-12-08T19:24:24.174Z,100714.50
2022-12-08T19:26:52.466Z,100682.38
2022-12-08T19:29:19.849Z,100705.78
2022-12-08T19:31:46.734Z,100718.47
2022-12-08T19:34:14.481Z,100612.81
2022-12-08T19:36:47.434Z,100705.81
2022-12-08T19:39:38.404Z,100640.28
2022-12-08T19:42:37.885Z,100696.03
2022-12-08T19:45:12.249Z,100609.00
2022-12-08T19:47:43.523Z,100666.84
2022-12-08T19:50:33.084Z,100667.56
2022-12-08T19:53:00.789Z,100706.34
2022-12-08T19:55:28.435Z,100699.44
2022-12-08T19:57:56.996Z,100687.00
2022-12-08T20:00:26.482Z,100704.16
2022-12-08T20:02:54.544Z,100706.41
2022-12-08T20:05:22.014Z,100707.31
2022-12-08T20:07:56.019Z,100698.66
2022-12-08T20:10:36.131Z,100650.28
2022-12-08T20:13:25.329Z,100614.81
2022-12-08T20:15:58.137Z,100697.22
2022-12-08T20:18:28.123Z,100695.03
2022-12-08T20:20:57.210Z,100697.19
2022-12-08T20:23:27.573Z,100659.69
2022-12-08T20:25:56.624Z,100637.97
2022-12-08T20:28:23.995Z,100640.22
2022-12-08T20:30:53.363Z,100680.78
2022-12-08T20:33:22.560Z,100634.38
2022-12-08T20:36:00.234Z,100639.31
2022-12-08T20:38:30.256Z,100681.66
2022-12-08T20:40:59.291Z,100684.78
2022-12-08T20:43:29.964Z,100681.94
2022-12-08T20:45:58.114Z,100686.47
2022-12-08T20:48:28.106Z,100556.94
2022-12-08T20:50:57.906Z,100683.78
2022-12-08T20:53:25.455Z,100691.16
2022-12-08T20:55:52.648Z,100671.03
2022-12-08T20:58:19.457Z,100692.09
2022-12-08T21:00:46.431Z,100672.13
2022-12-08T21:03:14.286Z,100689.50
2022-12-08T21:05:46.984Z,100665.47
2022-12-08T21:08:15.456Z,100692.47
2022-12-08T21:10:44.113Z,100659.34
2022-12-08T21:13:11.301Z,100676.63
2022-12-08T21:15:38.489Z,100694.84
2022-12-08T21:18:05.378Z,100686.47
2022-12-08T21:20:32.193Z,100684.09
2022-12-08T21:22:59.094Z,100674.88
2022-12-08T21:25:26.080Z,100657.34
2022-12-08T21:27:52.914Z,100661.63
2022-12-08T21:30:19.677Z,100659.06
2022-12-08T21:32:46.896Z,100647.66
2022-12-08T21:35:14.017Z,100655.91
2022-12-08T21:37:42.962Z,100616.19
2022-12-08T21:40:10.775Z,100614.50
2022-12-08T21:42:44.052Z,100655.59
2022-12-08T21:45:27.726Z,100570.41
2022-12-08T21:48:10.321Z,100657.53
2022-12-08T21:50:42.020Z,100621.72
2022-12-08T21:53:08.751Z,100547.19
2022-12-08T21:55:39.481Z,100614.34
2022-12-08T21:58:06.315Z,100603.06
2022-12-08T22:00:33.430Z,100615.59
2022-12-08T22:03:00.509Z,100638.75
2022-12-08T22:05:27.660Z,100654.53
2022-12-08T22:07:54.720Z,100633.28
2022-12-08T22:10:25.347Z,100639.69
2022-12-08T22:12:52.057Z,100653.72
2022-12-08T22:15:19.220Z,100602.81
2022-12-08T22:17:49.472Z,100574.63
2022-12-08T22:20:17.706Z,100657.91
2022-12-08T22:22:55.258Z,100629.69
2022-12-08T22:25:28.409Z,100651.22
2022-12-08T22:28:25.692Z,100675.78
2022-12-08T22:32:14.652Z,100682.53
2022-12-08T22:42:59.558Z,100493.66
2022-12-08T22:48:51.424Z,100656.38
2022-12-08T22:51:32.708Z,100650.72
2022-12-08T23:02:40.004Z,100657.22
2022-12-08T23:05:36.306Z,100663.34
2022-12-08T23:09:43.422Z,100600.69
2022-12-08T23:11:15.471Z,100555.63
2022-12-08T23:13:53.304Z,100646.59
2022-12-08T23:16:29.563Z,100643.72
2022-12-08T23:18:59.190Z,100645.66
2022-12-08T23:21:25.974Z,100630.91
2022-12-08T23:23:52.589Z,100637.50
2022-12-08T23:26:20.984Z,100635.47
2022-12-08T23:28:52.310Z,100638.06
2022-12-08T23:31:20.204Z,100633.88
2022-12-08T23:33:50.029Z,100627.50
2022-12-08T23:36:21.086Z,100619.97
2022-12-08T23:38:48.576Z,100605.41
2022-12-08T23:41:16.293Z,100611.88
2022-12-08T23:43:51.354Z,100564.06
2022-12-08T23:46:21.216Z,100611.41
2022-12-08T23:48:48.548Z,100612.88
2022-12-08T23:51:15.980Z,100587.84
2022-12-08T23:53:43.283Z,100597.09
2022-12-08T23:56:13.530Z,100604.34
2022-12-08T23:58:43.765Z,100480.19
